sensor_id;sensor_type;location;lat;lon;timestamp;P1;durP1;ratioP1;P2;durP2;ratioP2
30539;SDS011;17321;46.312;4.776;2024-03-23T00:54:16;3.20;;;2.55;;
30539;SDS011;17321;46.312;4.776;2024-03-23T00:56:42;5.63;;;2.90;;
30539;SDS011;17321;46.312;4.776;2024-03-23T00:59:08;9.32;;;3.30;;
30539;SDS011;17321;46.312;4.776;2024-03-23T01:01:34;4.15;;;2.15;;
30539;SDS011;17321;46.312;4.776;2024-03-23T01:04:00;4.82;;;2.55;;
30539;SDS011;17321;46.312;4.776;2024-03-23T01:06:26;3.83;;;2.70;;
30539;SDS011;17321;46.312;4.776;2024-03-23T01:08:52;6.72;;;3.13;;
30539;SDS011;17321;46.312;4.776;2024-03-23T01:11:18;3.10;;;2.65;;
30539;SDS011;17321;46.312;4.776;2024-03-23T01:13:44;3.33;;;2.58;;
30539;SDS011;17321;46.312;4.776;2024-03-23T01:16:10;6.20;;;2.90;;
30539;SDS011;17321;46.312;4.776;2024-03-23T01:18:36;6.75;;;2.97;;
30539;SDS011;17321;46.312;4.776;2024-03-23T01:21:02;3.70;;;2.47;;
30539;SDS011;17321;46.312;4.776;2024-03-23T01:23:28;7.03;;;2.67;;
30539;SDS011;17321;46.312;4.776;2024-03-23T01:25:54;4.80;;;2.78;;
30539;SDS011;17321;46.312;4.776;2024-03-23T01:28:20;6.85;;;2.80;;
30539;SDS011;17321;46.312;4.776;2024-03-23T01:30:46;2.85;;;2.20;;
30539;SDS011;17321;46.312;4.776;2024-03-23T01:33:13;3.95;;;2.67;;
30539;SDS011;17321;46.312;4.776;2024-03-23T01:35:39;3.78;;;2.25;;
30539;SDS011;17321;46.312;4.776;2024-03-23T01:38:05;5.15;;;2.78;;
30539;SDS011;17321;46.312;4.776;2024-03-23T01:40:31;5.20;;;2.50;;
30539;SDS011;17321;46.312;4.776;2024-03-23T01:43:04;5.57;;;2.85;;
30539;SDS011;17321;46.312;4.776;2024-03-23T01:45:31;6.47;;;2.85;;
30539;SDS011;17321;46.312;4.776;2024-03-23T01:47:58;10.90;;;2.50;;
30539;SDS011;17321;46.312;4.776;2024-03-23T01:50:24;7.07;;;2.80;;
30539;SDS011;17321;46.312;4.776;2024-03-23T01:52:50;3.50;;;2.35;;
30539;SDS011;17321;46.312;4.776;2024-03-23T01:55:16;4.03;;;2.80;;
30539;SDS011;17321;46.312;4.776;2024-03-23T01:57:42;8.18;;;3.53;;
30539;SDS011;17321;46.312;4.776;2024-03-23T02:00:09;5.38;;;2.83;;
30539;SDS011;17321;46.312;4.776;2024-03-23T02:02:40;9.48;;;3.38;;
30539;SDS011;17321;46.312;4.776;2024-03-23T02:05:06;9.75;;;3.40;;
30539;SDS011;17321;46.312;4.776;2024-03-23T02:07:33;8.02;;;3.03;;
30539;SDS011;17321;46.312;4.776;2024-03-23T02:09:59;5.57;;;3.00;;
30539;SDS011;17321;46.312;4.776;2024-03-23T02:12:25;10.90;;;4.35;;
30539;SDS011;17321;46.312;4.776;2024-03-23T02:14:51;8.30;;;3.60;;
30539;SDS011;17321;46.312;4.776;2024-03-23T02:17:17;5.60;;;3.15;;
30539;SDS011;17321;46.312;4.776;2024-03-23T02:19:43;12.38;;;3.83;;
30539;SDS011;17321;46.312;4.776;2024-03-23T02:22:11;9.18;;;3.33;;
30539;SDS011;17321;46.312;4.776;2024-03-23T02:24:37;4.47;;;3.05;;
30539;SDS011;17321;46.312;4.776;2024-03-23T02:27:03;6.07;;;3.10;;
30539;SDS011;17321;46.312;4.776;2024-03-23T02:29:30;8.25;;;3.55;;
30539;SDS011;17321;46.312;4.776;2024-03-23T02:31:56;10.18;;;4.20;;
30539;SDS011;17321;46.312;4.776;2024-03-23T02:34:23;6.45;;;4.03;;
30539;SDS011;17321;46.312;4.776;2024-03-23T02:36:49;11.60;;;4.43;;
30539;SDS011;17321;46.312;4.776;2024-03-23T02:39:15;11.13;;;4.25;;
30539;SDS011;17321;46.312;4.776;2024-03-23T02:41:41;13.45;;;4.63;;
30539;SDS011;17321;46.312;4.776;2024-03-23T02:44:07;7.95;;;4.28;;
30539;SDS011;17321;46.312;4.776;2024-03-23T02:46:36;7.95;;;4.13;;
30539;SDS011;17321;46.312;4.776;2024-03-23T02:49:02;15.35;;;4.90;;
30539;SDS011;17321;46.312;4.776;2024-03-23T02:51:29;10.43;;;4.47;;
30539;SDS011;17321;46.312;4.776;2024-03-23T02:53:55;8.75;;;4.85;;
30539;SDS011;17321;46.312;4.776;2024-03-23T02:56:22;7.05;;;4.15;;
30539;SDS011;17321;46.312;4.776;2024-03-23T02:58:48;18.67;;;4.78;;
30539;SDS011;17321;46.312;4.776;2024-03-23T03:01:14;9.95;;;4.65;;
30539;SDS011;17321;46.312;4.776;2024-03-23T03:03:40;10.93;;;5.13;;
30539;SDS011;17321;46.312;4.776;2024-03-23T03:06:06;5.80;;;4.07;;
30539;SDS011;17321;46.312;4.776;2024-03-23T03:08:32;10.15;;;6.13;;
30539;SDS011;17321;46.312;4.776;2024-03-23T03:10:58;9.70;;;5.63;;
30539;SDS011;17321;46.312;4.776;2024-03-23T03:13:24;13.05;;;6.75;;
30539;SDS011;17321;46.312;4.776;2024-03-23T03:15:50;10.35;;;6.80;;
30539;SDS011;17321;46.312;4.776;2024-03-23T03:18:16;9.63;;;6.57;;
30539;SDS011;17321;46.312;4.776;2024-03-23T03:20:42;11.85;;;6.07;;
30539;SDS011;17321;46.312;4.776;2024-03-23T03:23:08;11.50;;;6.57;;
30539;SDS011;17321;46.312;4.776;2024-03-23T03:25:35;8.27;;;5.28;;
30539;SDS011;17321;46.312;4.776;2024-03-23T03:28:01;7.68;;;5.05;;
30539;SDS011;17321;46.312;4.776;2024-03-23T03:30:27;9.95;;;5.57;;
30539;SDS011;17321;46.312;4.776;2024-03-23T03:32:53;7.38;;;4.68;;
30539;SDS011;17321;46.312;4.776;2024-03-23T03:35:19;9.48;;;5.53;;
30539;SDS011;17321;46.312;4.776;2024-03-23T03:37:45;8.27;;;4.97;;
30539;SDS011;17321;46.312;4.776;2024-03-23T03:40:12;7.32;;;5.60;;
30539;SDS011;17321;46.312;4.776;2024-03-23T03:42:39;9.07;;;5.68;;
30539;SDS011;17321;46.312;4.776;2024-03-23T03:45:06;8.32;;;6.00;;
30539;SDS011;17321;46.312;4.776;2024-03-23T03:47:32;8.20;;;5.60;;
30539;SDS011;17321;46.312;4.776;2024-03-23T03:49:58;8.77;;;5.60;;
30539;SDS011;17321;46.312;4.776;2024-03-23T03:52:24;7.20;;;5.85;;
30539;SDS011;17321;46.312;4.776;2024-03-23T03:54:51;8.45;;;5.53;;
30539;SDS011;17321;46.312;4.776;2024-03-23T03:57:17;8.07;;;5.00;;
30539;SDS011;17321;46.312;4.776;2024-03-23T03:59:43;8.60;;;5.20;;
30539;SDS011;17321;46.312;4.776;2024-03-23T04:02:09;13.07;;;5.82;;
30539;SDS011;17321;46.312;4.776;2024-03-23T04:04:35;6.22;;;5.55;;
30539;SDS011;17321;46.312;4.776;2024-03-23T04:07:01;7.45;;;5.85;;
30539;SDS011;17321;46.312;4.776;2024-03-23T04:09:27;9.13;;;6.50;;
30539;SDS011;17321;46.312;4.776;2024-03-23T04:11:54;7.28;;;5.97;;
30539;SDS011;17321;46.312;4.776;2024-03-23T04:14:20;7.88;;;6.15;;
30539;SDS011;17321;46.312;4.776;2024-03-23T04:16:46;7.63;;;5.78;;
30539;SDS011;17321;46.312;4.776;2024-03-23T04:19:12;11.60;;;7.15;;
30539;SDS011;17321;46.312;4.776;2024-03-23T04:21:39;8.18;;;6.03;;
30539;SDS011;17321;46.312;4.776;2024-03-23T04:24:05;8.40;;;6.53;;
30539;SDS011;17321;46.312;4.776;2024-03-23T04:26:40;10.48;;;6.43;;
30539;SDS011;17321;46.312;4.776;2024-03-23T04:29:06;7.15;;;6.15;;
30539;SDS011;17321;46.312;4.776;2024-03-23T04:31:32;9.45;;;7.10;;
30539;SDS011;17321;46.312;4.776;2024-03-23T04:33:59;10.20;;;7.05;;
30539;SDS011;17321;46.312;4.776;2024-03-23T04:36:25;11.57;;;7.72;;
30539;SDS011;17321;46.312;4.776;2024-03-23T04:38:51;9.43;;;7.57;;
30539;SDS011;17321;46.312;4.776;2024-03-23T04:41:17;10.05;;;7.93;;
30539;SDS011;17321;46.312;4.776;2024-03-23T04:43:43;7.82;;;7.03;;
30539;SDS011;17321;46.312;4.776;2024-03-23T04:46:10;8.80;;;7.40;;
30539;SDS011;17321;46.312;4.776;2024-03-23T04:48:35;9.30;;;7.72;;
30539;SDS011;17321;46.312;4.776;2024-03-23T04:51:02;9.77;;;8.55;;
30539;SDS011;17321;46.312;4.776;2024-03-23T04:53:28;11.48;;;9.10;;
30539;SDS011;17321;46.312;4.776;2024-03-23T04:55:57;9.27;;;8.00;;
30539;SDS011;17321;46.312;4.776;2024-03-23T04:58:27;11.48;;;8.18;;
30539;SDS011;17321;46.312;4.776;2024-03-23T05:00:56;9.88;;;8.30;;
30539;SDS011;17321;46.312;4.776;2024-03-23T05:03:22;10.10;;;8.40;;
30539;SDS011;17321;46.312;4.776;2024-03-23T05:05:49;11.20;;;8.15;;
30539;SDS011;17321;46.312;4.776;2024-03-23T05:08:15;7.97;;;7.18;;
30539;SDS011;17321;46.312;4.776;2024-03-23T05:10:42;6.07;;;3.67;;
30539;SDS011;17321;46.312;4.776;2024-03-23T05:13:08;3.92;;;2.55;;
30539;SDS011;17321;46.312;4.776;2024-03-23T05:15:34;1.92;;;1.40;;
30539;SDS011;17321;46.312;4.776;2024-03-23T05:18:00;3.17;;;1.38;;
30539;SDS011;17321;46.312;4.776;2024-03-23T05:20:26;2.50;;;1.08;;
30539;SDS011;17321;46.312;4.776;2024-03-23T05:22:52;1.45;;;0.90;;
30539;SDS011;17321;46.312;4.776;2024-03-23T05:25:18;2.20;;;0.80;;
30539;SDS011;17321;46.312;4.776;2024-03-23T05:27:44;1.25;;;0.70;;
30539;SDS011;17321;46.312;4.776;2024-03-23T05:30:10;3.47;;;0.75;;
30539;SDS011;17321;46.312;4.776;2024-03-23T05:32:36;6.20;;;0.60;;
30539;SDS011;17321;46.312;4.776;2024-03-23T05:35:05;4.47;;;0.55;;
30539;SDS011;17321;46.312;4.776;2024-03-23T05:37:32;2.92;;;0.60;;
30539;SDS011;17321;46.312;4.776;2024-03-23T05:39:59;1.27;;;0.43;;
30539;SDS011;17321;46.312;4.776;2024-03-23T05:42:25;1.50;;;0.65;;
30539;SDS011;17321;46.312;4.776;2024-03-23T05:44:51;1.02;;;0.40;;
30539;SDS011;17321;46.312;4.776;2024-03-23T05:47:17;0.90;;;0.45;;
30539;SDS011;17321;46.312;4.776;2024-03-23T05:49:45;0.75;;;0.43;;
30539;SDS011;17321;46.312;4.776;2024-03-23T05:52:11;2.28;;;0.45;;
30539;SDS011;17321;46.312;4.776;2024-03-23T05:54:37;1.55;;;0.40;;
30539;SDS011;17321;46.312;4.776;2024-03-23T05:57:03;1.17;;;0.55;;
30539;SDS011;17321;46.312;4.776;2024-03-23T05:59:29;3.03;;;0.50;;
30539;SDS011;17321;46.312;4.776;2024-03-23T06:01:56;2.90;;;0.40;;
30539;SDS011;17321;46.312;4.776;2024-03-23T06:04:22;1.48;;;0.35;;
30539;SDS011;17321;46.312;4.776;2024-03-23T06:06:48;1.95;;;0.50;;
30539;SDS011;17321;46.312;4.776;2024-03-23T06:09:14;3.38;;;0.77;;
30539;SDS011;17321;46.312;4.776;2024-03-23T06:11:40;2.15;;;0.50;;
30539;SDS011;17321;46.312;4.776;2024-03-23T06:14:06;1.02;;;0.63;;
30539;SDS011;17321;46.312;4.776;2024-03-23T06:16:32;4.47;;;1.05;;
30539;SDS011;17321;46.312;4.776;2024-03-23T06:18:58;3.35;;;0.70;;
30539;SDS011;17321;46.312;4.776;2024-03-23T06:21:24;5.90;;;1.15;;
30539;SDS011;17321;46.312;4.776;2024-03-23T06:23:53;2.45;;;0.88;;
30539;SDS011;17321;46.312;4.776;2024-03-23T06:26:19;1.20;;;0.68;;
30539;SDS011;17321;46.312;4.776;2024-03-23T06:28:46;6.43;;;1.30;;
30539;SDS011;17321;46.312;4.776;2024-03-23T06:31:12;3.08;;;1.00;;
30539;SDS011;17321;46.312;4.776;2024-03-23T06:33:38;5.20;;;1.45;;
30539;SDS011;17321;46.312;4.776;2024-03-23T06:36:06;14.15;;;1.55;;
30539;SDS011;17321;46.312;4.776;2024-03-23T06:38:32;6.68;;;1.52;;
30539;SDS011;17321;46.312;4.776;2024-03-23T06:40:58;5.32;;;1.60;;
30539;SDS011;17321;46.312;4.776;2024-03-23T06:43:24;11.48;;;2.10;;
30539;SDS011;17321;46.312;4.776;2024-03-23T06:45:53;14.23;;;2.95;;
30539;SDS011;17321;46.312;4.776;2024-03-23T06:48:20;19.08;;;2.60;;
30539;SDS011;17321;46.312;4.776;2024-03-23T06:50:46;13.80;;;2.30;;
30539;SDS011;17321;46.312;4.776;2024-03-23T06:53:13;15.20;;;2.55;;
30539;SDS011;17321;46.312;4.776;2024-03-23T06:55:39;13.88;;;3.70;;
30539;SDS011;17321;46.312;4.776;2024-03-23T06:58:05;15.32;;;2.90;;
30539;SDS011;17321;46.312;4.776;2024-03-23T07:00:31;14.50;;;3.00;;
30539;SDS011;17321;46.312;4.776;2024-03-23T07:02:58;13.52;;;3.00;;
30539;SDS011;17321;46.312;4.776;2024-03-23T07:05:24;14.70;;;3.13;;
30539;SDS011;17321;46.312;4.776;2024-03-23T07:07:50;15.02;;;2.83;;
30539;SDS011;17321;46.312;4.776;2024-03-23T07:10:16;20.52;;;3.17;;
30539;SDS011;17321;46.312;4.776;2024-03-23T07:12:42;19.23;;;3.50;;
30539;SDS011;17321;46.312;4.776;2024-03-23T07:15:08;16.02;;;2.58;;
30539;SDS011;17321;46.312;4.776;2024-03-23T07:17:35;21.65;;;3.72;;
30539;SDS011;17321;46.312;4.776;2024-03-23T07:20:01;15.95;;;3.15;;
30539;SDS011;17321;46.312;4.776;2024-03-23T07:22:35;20.95;;;4.07;;
30539;SDS011;17321;46.312;4.776;2024-03-23T07:25:01;17.80;;;3.20;;
30539;SDS011;17321;46.312;4.776;2024-03-23T07:27:28;19.90;;;3.83;;
30539;SDS011;17321;46.312;4.776;2024-03-23T07:29:54;14.90;;;3.85;;
30539;SDS011;17321;46.312;4.776;2024-03-23T07:32:20;13.88;;;3.17;;
30539;SDS011;17321;46.312;4.776;2024-03-23T07:34:46;19.45;;;3.80;;
30539;SDS011;17321;46.312;4.776;2024-03-23T07:37:13;18.02;;;3.40;;
30539;SDS011;17321;46.312;4.776;2024-03-23T07:39:39;18.45;;;3.83;;
30539;SDS011;17321;46.312;4.776;2024-03-23T07:42:05;16.88;;;3.47;;
30539;SDS011;17321;46.312;4.776;2024-03-23T07:44:31;14.70;;;3.95;;
30539;SDS011;17321;46.312;4.776;2024-03-23T07:46:58;18.70;;;3.55;;
30539;SDS011;17321;46.312;4.776;2024-03-23T07:49:24;21.25;;;3.97;;
30539;SDS011;17321;46.312;4.776;2024-03-23T07:51:50;19.10;;;4.13;;
30539;SDS011;17321;46.312;4.776;2024-03-23T07:54:16;17.65;;;3.30;;
30539;SDS011;17321;46.312;4.776;2024-03-23T07:56:42;21.27;;;4.43;;
30539;SDS011;17321;46.312;4.776;2024-03-23T07:59:08;25.38;;;4.28;;
30539;SDS011;17321;46.312;4.776;2024-03-23T08:01:34;16.35;;;3.58;;
30539;SDS011;17321;46.312;4.776;2024-03-23T08:04:00;15.35;;;3.30;;
30539;SDS011;17321;46.312;4.776;2024-03-23T08:06:26;16.25;;;3.15;;
30539;SDS011;17321;46.312;4.776;2024-03-23T08:08:54;21.98;;;3.75;;
30539;SDS011;17321;46.312;4.776;2024-03-23T08:11:27;19.00;;;3.80;;
30539;SDS011;17321;46.312;4.776;2024-03-23T08:13:54;21.73;;;3.42;;
30539;SDS011;17321;46.312;4.776;2024-03-23T08:16:20;17.60;;;3.78;;
30539;SDS011;17321;46.312;4.776;2024-03-23T08:18:46;13.65;;;3.17;;
30539;SDS011;17321;46.312;4.776;2024-03-23T08:21:12;24.27;;;4.78;;
30539;SDS011;17321;46.312;4.776;2024-03-23T08:23:38;15.10;;;3.33;;
30539;SDS011;17321;46.312;4.776;2024-03-23T08:26:09;16.63;;;3.70;;
30539;SDS011;17321;46.312;4.776;2024-03-23T08:28:35;14.95;;;2.85;;
30539;SDS011;17321;46.312;4.776;2024-03-23T08:31:02;16.70;;;3.67;;
30539;SDS011;17321;46.312;4.776;2024-03-23T08:33:28;23.30;;;3.90;;
30539;SDS011;17321;46.312;4.776;2024-03-23T08:35:56;19.85;;;3.78;;
30539;SDS011;17321;46.312;4.776;2024-03-23T08:38:25;24.38;;;4.43;;
30539;SDS011;17321;46.312;4.776;2024-03-23T08:43:17;15.13;;;3.13;;
30539;SDS011;17321;46.312;4.776;2024-03-23T08:45:43;21.42;;;4.25;;
30539;SDS011;17321;46.312;4.776;2024-03-23T08:48:09;13.30;;;2.55;;
30539;SDS011;17321;46.312;4.776;2024-03-23T08:50:35;14.55;;;3.13;;
30539;SDS011;17321;46.312;4.776;2024-03-23T08:53:01;22.98;;;3.88;;
30539;SDS011;17321;46.312;4.776;2024-03-23T08:55:27;17.98;;;3.67;;
30539;SDS011;17321;46.312;4.776;2024-03-23T08:57:53;11.00;;;2.38;;
30539;SDS011;17321;46.312;4.776;2024-03-23T09:00:19;19.42;;;4.10;;
30539;SDS011;17321;46.312;4.776;2024-03-23T09:02:47;17.77;;;3.38;;
30539;SDS011;17321;46.312;4.776;2024-03-23T09:05:13;18.45;;;3.28;;
30539;SDS011;17321;46.312;4.776;2024-03-23T09:07:39;12.43;;;2.85;;
30539;SDS011;17321;46.312;4.776;2024-03-23T09:10:05;12.65;;;2.58;;
30539;SDS011;17321;46.312;4.776;2024-03-23T09:12:31;11.05;;;2.47;;
30539;SDS011;17321;46.312;4.776;2024-03-23T09:14:57;6.80;;;2.22;;
30539;SDS011;17321;46.312;4.776;2024-03-23T09:17:23;10.60;;;1.98;;
30539;SDS011;17321;46.312;4.776;2024-03-23T09:19:49;8.23;;;2.22;;
30539;SDS011;17321;46.312;4.776;2024-03-23T09:22:15;8.40;;;2.20;;
30539;SDS011;17321;46.312;4.776;2024-03-23T09:24:41;11.40;;;2.45;;
30539;SDS011;17321;46.312;4.776;2024-03-23T09:27:07;13.88;;;3.45;;
30539;SDS011;17321;46.312;4.776;2024-03-23T09:29:33;12.30;;;2.20;;
30539;SDS011;17321;46.312;4.776;2024-03-23T09:31:59;9.50;;;2.22;;
30539;SDS011;17321;46.312;4.776;2024-03-23T09:34:25;10.93;;;2.42;;
30539;SDS011;17321;46.312;4.776;2024-03-23T09:36:51;7.78;;;2.17;;
30539;SDS011;17321;46.312;4.776;2024-03-23T09:39:18;12.05;;;1.80;;
30539;SDS011;17321;46.312;4.776;2024-03-23T09:41:44;11.63;;;2.20;;
30539;SDS011;17321;46.312;4.776;2024-03-23T09:44:10;8.90;;;2.17;;
30539;SDS011;17321;46.312;4.776;2024-03-23T09:46:36;12.27;;;2.47;;
30539;SDS011;17321;46.312;4.776;2024-03-23T09:49:04;6.78;;;1.60;;
30539;SDS011;17321;46.312;4.776;2024-03-23T09:51:31;10.23;;;2.15;;
30539;SDS011;17321;46.312;4.776;2024-03-23T09:53:57;10.32;;;2.33;;
30539;SDS011;17321;46.312;4.776;2024-03-23T09:56:23;7.43;;;2.55;;
30539;SDS011;17321;46.312;4.776;2024-03-23T09:58:49;8.98;;;2.22;;
30539;SDS011;17321;46.312;4.776;2024-03-23T10:01:16;8.73;;;2.30;;
30539;SDS011;17321;46.312;4.776;2024-03-23T10:03:43;10.82;;;2.03;;
30539;SDS011;17321;46.312;4.776;2024-03-23T10:06:09;11.07;;;2.10;;
30539;SDS011;17321;46.312;4.776;2024-03-23T10:08:35;11.82;;;2.20;;
30539;SDS011;17321;46.312;4.776;2024-03-23T10:11:22;8.50;;;2.28;;
30539;SDS011;17321;46.312;4.776;2024-03-23T10:13:48;6.32;;;2.10;;
30539;SDS011;17321;46.312;4.776;2024-03-23T10:16:21;10.18;;;2.38;;
30539;SDS011;17321;46.312;4.776;2024-03-23T10:18:48;11.45;;;2.33;;
30539;SDS011;17321;46.312;4.776;2024-03-23T10:21:14;8.90;;;2.00;;
30539;SDS011;17321;46.312;4.776;2024-03-23T10:23:41;8.15;;;2.15;;
30539;SDS011;17321;46.312;4.776;2024-03-23T10:26:21;10.93;;;1.75;;
30539;SDS011;17321;46.312;4.776;2024-03-23T10:28:57;11.73;;;2.50;;
30539;SDS011;17321;46.312;4.776;2024-03-23T10:33:52;10.07;;;2.28;;
30539;SDS011;17321;46.312;4.776;2024-03-23T10:36:19;12.55;;;2.10;;
30539;SDS011;17321;46.312;4.776;2024-03-23T10:38:46;13.27;;;2.58;;
30539;SDS011;17321;46.312;4.776;2024-03-23T10:41:12;9.75;;;2.70;;
30539;SDS011;17321;46.312;4.776;2024-03-23T10:43:38;12.27;;;2.03;;
30539;SDS011;17321;46.312;4.776;2024-03-23T10:46:05;12.13;;;2.42;;
30539;SDS011;17321;46.312;4.776;2024-03-23T10:48:32;11.50;;;2.20;;
30539;SDS011;17321;46.312;4.776;2024-03-23T10:50:58;8.48;;;2.53;;
30539;SDS011;17321;46.312;4.776;2024-03-23T10:53:28;8.35;;;2.33;;
30539;SDS011;17321;46.312;4.776;2024-03-23T10:55:55;9.30;;;2.35;;
30539;SDS011;17321;46.312;4.776;2024-03-23T10:58:27;6.90;;;2.25;;
30539;SDS011;17321;46.312;4.776;2024-03-23T11:00:54;10.73;;;2.45;;
30539;SDS011;17321;46.312;4.776;2024-03-23T11:05:55;7.88;;;1.98;;
30539;SDS011;17321;46.312;4.776;2024-03-23T11:11:21;11.52;;;2.10;;
30539;SDS011;17321;46.312;4.776;2024-03-23T11:13:54;9.40;;;2.53;;
30539;SDS011;17321;46.312;4.776;2024-03-23T11:16:23;14.15;;;5.25;;
30539;SDS011;17321;46.312;4.776;2024-03-23T11:18:52;8.45;;;1.85;;
30539;SDS011;17321;46.312;4.776;2024-03-23T11:24:14;9.77;;;2.30;;
30539;SDS011;17321;46.312;4.776;2024-03-23T11:26:41;9.90;;;2.65;;
30539;SDS011;17321;46.312;4.776;2024-03-23T11:29:25;14.43;;;2.63;;
30539;SDS011;17321;46.312;4.776;2024-03-23T11:31:51;11.77;;;2.53;;
30539;SDS011;17321;46.312;4.776;2024-03-23T11:34:18;15.00;;;2.60;;
30539;SDS011;17321;46.312;4.776;2024-03-23T11:36:45;14.65;;;2.58;;
30539;SDS011;17321;46.312;4.776;2024-03-23T11:39:12;9.90;;;2.28;;
30539;SDS011;17321;46.312;4.776;2024-03-23T11:41:55;7.82;;;1.67;;
30539;SDS011;17321;46.312;4.776;2024-03-23T11:44:22;9.57;;;1.80;;
30539;SDS011;17321;46.312;4.776;2024-03-23T11:46:48;11.20;;;2.60;;
30539;SDS011;17321;46.312;4.776;2024-03-23T11:49:24;9.40;;;2.58;;
30539;SDS011;17321;46.312;4.776;2024-03-23T11:51:51;7.72;;;1.77;;
30539;SDS011;17321;46.312;4.776;2024-03-23T11:54:25;6.90;;;1.65;;
30539;SDS011;17321;46.312;4.776;2024-03-23T11:56:55;10.77;;;1.70;;
30539;SDS011;17321;46.312;4.776;2024-03-23T11:59:34;11.05;;;2.08;;
30539;SDS011;17321;46.312;4.776;2024-03-23T12:02:01;10.43;;;1.83;;
30539;SDS011;17321;46.312;4.776;2024-03-23T12:04:31;9.07;;;1.50;;
30539;SDS011;17321;46.312;4.776;2024-03-23T12:07:17;7.72;;;1.98;;
30539;SDS011;17321;46.312;4.776;2024-03-23T12:09:47;9.15;;;2.28;;
30539;SDS011;17321;46.312;4.776;2024-03-23T12:12:28;12.18;;;2.20;;
30539;SDS011;17321;46.312;4.776;2024-03-23T12:15:01;8.40;;;1.70;;
30539;SDS011;17321;46.312;4.776;2024-03-23T12:17:27;7.97;;;2.33;;
30539;SDS011;17321;46.312;4.776;2024-03-23T12:19:53;9.13;;;2.28;;
30539;SDS011;17321;46.312;4.776;2024-03-23T12:22:23;8.38;;;2.30;;
30539;SDS011;17321;46.312;4.776;2024-03-23T12:24:49;8.77;;;2.15;;
30539;SDS011;17321;46.312;4.776;2024-03-23T12:27:16;7.25;;;1.88;;
30539;SDS011;17321;46.312;4.776;2024-03-23T12:29:42;12.63;;;2.28;;
30539;SDS011;17321;46.312;4.776;2024-03-23T12:32:10;9.38;;;2.10;;
30539;SDS011;17321;46.312;4.776;2024-03-23T12:34:37;10.60;;;2.22;;
30539;SDS011;17321;46.312;4.776;2024-03-23T12:37:03;15.02;;;1.92;;
30539;SDS011;17321;46.312;4.776;2024-03-23T12:39:29;8.32;;;1.60;;
30539;SDS011;17321;46.312;4.776;2024-03-23T12:41:55;9.63;;;1.85;;
30539;SDS011;17321;46.312;4.776;2024-03-23T12:44:21;7.10;;;1.80;;
30539;SDS011;17321;46.312;4.776;2024-03-23T12:46:47;6.85;;;1.70;;
30539;SDS011;17321;46.312;4.776;2024-03-23T12:49:13;5.10;;;1.60;;
30539;SDS011;17321;46.312;4.776;2024-03-23T12:51:39;6.35;;;1.63;;
30539;SDS011;17321;46.312;4.776;2024-03-23T12:54:11;13.10;;;2.22;;
30539;SDS011;17321;46.312;4.776;2024-03-23T12:56:38;10.70;;;1.73;;
30539;SDS011;17321;46.312;4.776;2024-03-23T12:59:04;6.22;;;1.55;;
30539;SDS011;17321;46.312;4.776;2024-03-23T13:01:30;7.75;;;2.45;;
30539;SDS011;17321;46.312;4.776;2024-03-23T13:03:56;8.88;;;1.98;;
30539;SDS011;17321;46.312;4.776;2024-03-23T13:06:24;6.95;;;1.85;;
30539;SDS011;17321;46.312;4.776;2024-03-23T13:08:50;5.93;;;1.63;;
30539;SDS011;17321;46.312;4.776;2024-03-23T13:11:16;10.13;;;2.17;;
30539;SDS011;17321;46.312;4.776;2024-03-23T13:13:43;11.07;;;2.05;;
30539;SDS011;17321;46.312;4.776;2024-03-23T13:16:09;8.20;;;1.83;;
30539;SDS011;17321;46.312;4.776;2024-03-23T13:18:35;11.57;;;1.85;;
30539;SDS011;17321;46.312;4.776;2024-03-23T13:21:01;8.52;;;2.28;;
30539;SDS011;17321;46.312;4.776;2024-03-23T13:23:27;9.65;;;2.20;;
30539;SDS011;17321;46.312;4.776;2024-03-23T13:25:54;7.65;;;2.10;;
30539;SDS011;17321;46.312;4.776;2024-03-23T13:28:20;6.30;;;2.00;;
30539;SDS011;17321;46.312;4.776;2024-03-23T13:30:53;9.70;;;1.65;;
30539;SDS011;17321;46.312;4.776;2024-03-23T13:33:19;5.95;;;1.50;;
30539;SDS011;17321;46.312;4.776;2024-03-23T13:35:54;5.57;;;1.80;;
30539;SDS011;17321;46.312;4.776;2024-03-23T13:38:21;9.70;;;1.98;;
30539;SDS011;17321;46.312;4.776;2024-03-23T13:40:53;8.68;;;1.65;;
30539;SDS011;17321;46.312;4.776;2024-03-23T13:43:20;8.77;;;1.95;;
30539;SDS011;17321;46.312;4.776;2024-03-23T13:45:50;9.27;;;1.65;;
30539;SDS011;17321;46.312;4.776;2024-03-23T13:48:17;7.07;;;1.77;;
30539;SDS011;17321;46.312;4.776;2024-03-23T13:50:44;7.38;;;1.92;;
30539;SDS011;17321;46.312;4.776;2024-03-23T13:53:12;10.13;;;2.00;;
30539;SDS011;17321;46.312;4.776;2024-03-23T13:55:44;12.10;;;2.08;;
30539;SDS011;17321;46.312;4.776;2024-03-23T13:58:11;9.70;;;2.00;;
30539;SDS011;17321;46.312;4.776;2024-03-23T14:00:37;11.27;;;2.08;;
30539;SDS011;17321;46.312;4.776;2024-03-23T14:03:03;7.05;;;2.05;;
30539;SDS011;17321;46.312;4.776;2024-03-23T14:05:30;8.93;;;1.42;;
30539;SDS011;17321;46.312;4.776;2024-03-23T14:07:56;6.43;;;1.77;;
30539;SDS011;17321;46.312;4.776;2024-03-23T14:10:22;12.45;;;1.80;;
30539;SDS011;17321;46.312;4.776;2024-03-23T14:12:48;8.63;;;1.73;;
30539;SDS011;17321;46.312;4.776;2024-03-23T14:15:14;7.55;;;1.77;;
30539;SDS011;17321;46.312;4.776;2024-03-23T14:17:40;7.18;;;1.65;;
30539;SDS011;17321;46.312;4.776;2024-03-23T14:20:06;8.93;;;1.60;;
30539;SDS011;17321;46.312;4.776;2024-03-23T14:25:02;3.97;;;1.45;;
30539;SDS011;17321;46.312;4.776;2024-03-23T14:27:28;11.95;;;2.03;;
30539;SDS011;17321;46.312;4.776;2024-03-23T14:29:54;8.07;;;1.83;;
30539;SDS011;17321;46.312;4.776;2024-03-23T14:32:21;6.65;;;1.73;;
30539;SDS011;17321;46.312;4.776;2024-03-23T14:34:47;8.98;;;1.70;;
30539;SDS011;17321;46.312;4.776;2024-03-23T14:37:13;4.10;;;1.23;;
30539;SDS011;17321;46.312;4.776;2024-03-23T14:39:41;6.75;;;1.70;;
30539;SDS011;17321;46.312;4.776;2024-03-23T14:42:07;5.97;;;1.63;;
30539;SDS011;17321;46.312;4.776;2024-03-23T14:44:33;4.97;;;1.58;;
30539;SDS011;17321;46.312;4.776;2024-03-23T14:46:59;4.38;;;1.20;;
30539;SDS011;17321;46.312;4.776;2024-03-23T14:49:26;12.40;;;1.80;;
30539;SDS011;17321;46.312;4.776;2024-03-23T14:51:51;10.02;;;1.70;;
30539;SDS011;17321;46.312;4.776;2024-03-23T14:54:17;12.85;;;1.52;;
30539;SDS011;17321;46.312;4.776;2024-03-23T14:56:44;5.28;;;1.15;;
30539;SDS011;17321;46.312;4.776;2024-03-23T14:59:10;6.72;;;1.52;;
30539;SDS011;17321;46.312;4.776;2024-03-23T15:01:36;7.57;;;1.60;;
30539;SDS011;17321;46.312;4.776;2024-03-23T15:04:02;6.18;;;1.13;;
30539;SDS011;17321;46.312;4.776;2024-03-23T15:06:28;5.22;;;1.55;;
30539;SDS011;17321;46.312;4.776;2024-03-23T15:08:54;4.82;;;1.05;;
30539;SDS011;17321;46.312;4.776;2024-03-23T15:11:21;11.15;;;1.80;;
30539;SDS011;17321;46.312;4.776;2024-03-23T15:13:49;5.22;;;1.40;;
30539;SDS011;17321;46.312;4.776;2024-03-23T15:16:18;7.80;;;1.67;;
30539;SDS011;17321;46.312;4.776;2024-03-23T15:18:47;4.90;;;1.30;;
30539;SDS011;17321;46.312;4.776;2024-03-23T15:21:13;9.30;;;1.60;;
30539;SDS011;17321;46.312;4.776;2024-03-23T15:23:44;5.38;;;1.17;;
30539;SDS011;17321;46.312;4.776;2024-03-23T15:26:10;6.18;;;1.13;;
30539;SDS011;17321;46.312;4.776;2024-03-23T15:28:36;6.30;;;1.35;;
30539;SDS011;17321;46.312;4.776;2024-03-23T15:31:21;5.70;;;1.80;;
30539;SDS011;17321;46.312;4.776;2024-03-23T15:33:47;3.92;;;1.30;;
30539;SDS011;17321;46.312;4.776;2024-03-23T15:36:13;3.72;;;1.25;;
30539;SDS011;17321;46.312;4.776;2024-03-23T15:38:39;8.32;;;2.08;;
30539;SDS011;17321;46.312;4.776;2024-03-23T15:41:05;8.48;;;1.27;;
30539;SDS011;17321;46.312;4.776;2024-03-23T15:43:31;4.20;;;1.27;;
30539;SDS011;17321;46.312;4.776;2024-03-23T15:45:57;7.90;;;1.63;;
30539;SDS011;17321;46.312;4.776;2024-03-23T15:48:27;7.35;;;1.65;;
30539;SDS011;17321;46.312;4.776;2024-03-23T15:50:53;5.40;;;1.85;;